sensor_id;sensor_type;location;lat;lon;timestamp;P1;durP1;ratioP1;P2;durP2;ratioP2
14021;SDS011;7086;48.116;11.580;2023-09-07T00:01:29;2.67;;;2.47;;
14021;SDS011;7086;48.116;11.580;2023-09-07T00:03:56;3.75;;;2.60;;
14021;SDS011;7086;48.116;11.580;2023-09-07T00:06:23;2.58;;;2.38;;
14021;SDS011;7086;48.116;11.580;2023-09-07T00:08:51;2.97;;;2.40;;
14021;SDS011;7086;48.116;11.580;2023-09-07T00:11:18;2.80;;;2.60;;
14021;SDS011;7086;48.116;11.580;2023-09-07T00:13:45;2.65;;;2.42;;
14021;SDS011;7086;48.116;11.580;2023-09-07T00:16:12;2.60;;;2.40;;
14021;SDS011;7086;48.116;11.580;2023-09-07T00:18:38;2.42;;;2.30;;
14021;SDS011;7086;48.116;11.580;2023-09-07T00:21:05;2.90;;;2.28;;
14021;SDS011;7086;48.116;11.580;2023-09-07T00:23:32;2.67;;;2.30;;
14021;SDS011;7086;48.116;11.580;2023-09-07T00:26:00;2.47;;;2.28;;
14021;SDS011;7086;48.116;11.580;2023-09-07T00:28:27;2.58;;;2.38;;
14021;SDS011;7086;48.116;11.580;2023-09-07T00:30:54;3.25;;;3.05;;
14021;SDS011;7086;48.116;11.580;2023-09-07T00:33:21;3.15;;;2.67;;
14021;SDS011;7086;48.116;11.580;2023-09-07T00:35:47;2.50;;;2.40;;
14021;SDS011;7086;48.116;11.580;2023-09-07T00:38:14;3.28;;;3.03;;
14021;SDS011;7086;48.116;11.580;2023-09-07T00:40:42;3.05;;;2.85;;
14021;SDS011;7086;48.116;11.580;2023-09-07T00:43:11;2.88;;;2.67;;
14021;SDS011;7086;48.116;11.580;2023-09-07T00:45:38;3.00;;;2.80;;
14021;SDS011;7086;48.116;11.580;2023-09-07T00:48:05;3.40;;;3.10;;
14021;SDS011;7086;48.116;11.580;2023-09-07T00:50:32;3.05;;;2.85;;
14021;SDS011;7086;48.116;11.580;2023-09-07T00:52:59;3.58;;;3.30;;
14021;SDS011;7086;48.116;11.580;2023-09-07T00:55:28;3.22;;;3.00;;
14021;SDS011;7086;48.116;11.580;2023-09-07T00:57:57;3.35;;;3.15;;
14021;SDS011;7086;48.116;11.580;2023-09-07T01:00:25;3.20;;;2.90;;
14021;SDS011;7086;48.116;11.580;2023-09-07T01:02:52;2.85;;;2.65;;
14021;SDS011;7086;48.116;11.580;2023-09-07T01:05:19;3.03;;;2.83;;
14021;SDS011;7086;48.116;11.580;2023-09-07T01:07:57;4.05;;;3.70;;
14021;SDS011;7086;48.116;11.580;2023-09-07T01:10:28;4.63;;;2.28;;
14021;SDS011;7086;48.116;11.580;2023-09-07T01:12:55;2.35;;;2.25;;
14021;SDS011;7086;48.116;11.580;2023-09-07T01:15:21;2.80;;;2.47;;
14021;SDS011;7086;48.116;11.580;2023-09-07T01:17:49;2.90;;;2.65;;
14021;SDS011;7086;48.116;11.580;2023-09-07T01:20:17;3.25;;;3.05;;
14021;SDS011;7086;48.116;11.580;2023-09-07T01:22:47;3.35;;;3.10;;
14021;SDS011;7086;48.116;11.580;2023-09-07T01:25:14;3.53;;;3.22;;
14021;SDS011;7086;48.116;11.580;2023-09-07T01:27:41;3.35;;;3.17;;
14021;SDS011;7086;48.116;11.580;2023-09-07T01:30:08;4.20;;;2.70;;
14021;SDS011;7086;48.116;11.580;2023-09-07T01:32:36;3.90;;;3.60;;
14021;SDS011;7086;48.116;11.580;2023-09-07T01:35:03;3.92;;;3.13;;
14021;SDS011;7086;48.116;11.580;2023-09-07T01:37:32;3.38;;;3.15;;
14021;SDS011;7086;48.116;11.580;2023-09-07T01:40:00;3.13;;;2.78;;
14021;SDS011;7086;48.116;11.580;2023-09-07T01:42:32;3.47;;;3.28;;
14021;SDS011;7086;48.116;11.580;2023-09-07T01:44:59;4.03;;;3.20;;
14021;SDS011;7086;48.116;11.580;2023-09-07T01:47:26;3.40;;;3.10;;
14021;SDS011;7086;48.116;11.580;2023-09-07T01:49:52;3.83;;;3.53;;
14021;SDS011;7086;48.116;11.580;2023-09-07T01:52:19;4.20;;;3.25;;
14021;SDS011;7086;48.116;11.580;2023-09-07T01:54:46;3.55;;;3.42;;
14021;SDS011;7086;48.116;11.580;2023-09-07T01:57:14;4.03;;;3.30;;
14021;SDS011;7086;48.116;11.580;2023-09-07T01:59:41;3.78;;;3.58;;
14021;SDS011;7086;48.116;11.580;2023-09-07T02:02:08;3.22;;;3.00;;
14021;SDS011;7086;48.116;11.580;2023-09-07T02:04:34;4.35;;;3.25;;
14021;SDS011;7086;48.116;11.580;2023-09-07T02:07:01;3.70;;;3.40;;
14021;SDS011;7086;48.116;11.580;2023-09-07T02:09:29;3.60;;;3.33;;
14021;SDS011;7086;48.116;11.580;2023-09-07T02:11:57;2.70;;;2.60;;
14021;SDS011;7086;48.116;11.580;2023-09-07T02:14:25;6.55;;;3.78;;
14021;SDS011;7086;48.116;11.580;2023-09-07T02:16:52;3.78;;;3.10;;
14021;SDS011;7086;48.116;11.580;2023-09-07T02:19:19;4.50;;;4.10;;
14021;SDS011;7086;48.116;11.580;2023-09-07T02:21:47;3.53;;;3.30;;
14021;SDS011;7086;48.116;11.580;2023-09-07T02:24:15;3.13;;;2.92;;
14021;SDS011;7086;48.116;11.580;2023-09-07T02:26:42;3.55;;;3.25;;
14021;SDS011;7086;48.116;11.580;2023-09-07T02:29:10;3.55;;;3.20;;
14021;SDS011;7086;48.116;11.580;2023-09-07T02:31:39;4.10;;;3.55;;
14021;SDS011;7086;48.116;11.580;2023-09-07T02:34:05;3.60;;;3.40;;
14021;SDS011;7086;48.116;11.580;2023-09-07T02:36:33;4.00;;;3.70;;
14021;SDS011;7086;48.116;11.580;2023-09-07T02:38:59;3.72;;;3.40;;
14021;SDS011;7086;48.116;11.580;2023-09-07T02:41:27;4.25;;;3.95;;
14021;SDS011;7086;48.116;11.580;2023-09-07T02:43:53;3.78;;;3.50;;
14021;SDS011;7086;48.116;11.580;2023-09-07T02:46:20;3.63;;;3.40;;
14021;SDS011;7086;48.116;11.580;2023-09-07T02:48:48;4.30;;;4.00;;
14021;SDS011;7086;48.116;11.580;2023-09-07T02:51:15;9.38;;;3.90;;
14021;SDS011;7086;48.116;11.580;2023-09-07T02:53:42;4.63;;;3.90;;
14021;SDS011;7086;48.116;11.580;2023-09-07T02:56:09;4.07;;;3.88;;
14021;SDS011;7086;48.116;11.580;2023-09-07T02:58:36;3.65;;;3.40;;
14021;SDS011;7086;48.116;11.580;2023-09-07T03:01:05;3.35;;;3.15;;
14021;SDS011;7086;48.116;11.580;2023-09-07T03:03:33;4.43;;;4.07;;
14021;SDS011;7086;48.116;11.580;2023-09-07T03:06:08;4.35;;;4.05;;
14021;SDS011;7086;48.116;11.580;2023-09-07T03:08:35;4.57;;;4.10;;
14021;SDS011;7086;48.116;11.580;2023-09-07T03:11:02;4.93;;;4.53;;
14021;SDS011;7086;48.116;11.580;2023-09-07T03:13:29;3.92;;;3.60;;
14021;SDS011;7086;48.116;11.580;2023-09-07T03:15:56;3.78;;;3.47;;
14021;SDS011;7086;48.116;11.580;2023-09-07T03:18:23;4.55;;;3.67;;
14021;SDS011;7086;48.116;11.580;2023-09-07T03:20:50;5.70;;;4.35;;
14021;SDS011;7086;48.116;11.580;2023-09-07T03:23:18;6.93;;;4.38;;
14021;SDS011;7086;48.116;11.580;2023-09-07T03:25:45;3.20;;;3.00;;
14021;SDS011;7086;48.116;11.580;2023-09-07T03:28:11;3.88;;;3.63;;
14021;SDS011;7086;48.116;11.580;2023-09-07T03:30:38;4.40;;;4.00;;
14021;SDS011;7086;48.116;11.580;2023-09-07T03:33:05;4.25;;;3.88;;
14021;SDS011;7086;48.116;11.580;2023-09-07T03:35:32;3.67;;;3.47;;
14021;SDS011;7086;48.116;11.580;2023-09-07T03:37:59;4.43;;;3.95;;
14021;SDS011;7086;48.116;11.580;2023-09-07T03:40:27;4.90;;;4.50;;
14021;SDS011;7086;48.116;11.580;2023-09-07T03:42:54;4.68;;;4.13;;
14021;SDS011;7086;48.116;11.580;2023-09-07T03:45:20;5.63;;;3.50;;
14021;SDS011;7086;48.116;11.580;2023-09-07T03:47:47;3.85;;;3.65;;
14021;SDS011;7086;48.116;11.580;2023-09-07T03:50:14;4.90;;;4.50;;
14021;SDS011;7086;48.116;11.580;2023-09-07T03:52:41;4.40;;;4.10;;
14021;SDS011;7086;48.116;11.580;2023-09-07T03:55:08;4.22;;;3.83;;
14021;SDS011;7086;48.116;11.580;2023-09-07T03:57:37;6.13;;;4.25;;
14021;SDS011;7086;48.116;11.580;2023-09-07T04:00:04;3.90;;;3.70;;
14021;SDS011;7086;48.116;11.580;2023-09-07T04:02:33;5.07;;;4.60;;
14021;SDS011;7086;48.116;11.580;2023-09-07T04:05:00;5.78;;;4.30;;
14021;SDS011;7086;48.116;11.580;2023-09-07T04:07:30;4.50;;;4.10;;
14021;SDS011;7086;48.116;11.580;2023-09-07T04:09:56;7.07;;;3.88;;
14021;SDS011;7086;48.116;11.580;2023-09-07T04:12:23;4.32;;;3.90;;
14021;SDS011;7086;48.116;11.580;2023-09-07T04:14:52;3.58;;;3.38;;
14021;SDS011;7086;48.116;11.580;2023-09-07T04:17:19;3.08;;;2.88;;
14021;SDS011;7086;48.116;11.580;2023-09-07T04:19:46;4.15;;;3.78;;
14021;SDS011;7086;48.116;11.580;2023-09-07T04:22:12;3.50;;;3.20;;
14021;SDS011;7086;48.116;11.580;2023-09-07T04:24:39;3.72;;;2.70;;
14021;SDS011;7086;48.116;11.580;2023-09-07T04:27:06;2.90;;;2.70;;
14021;SDS011;7086;48.116;11.580;2023-09-07T04:29:33;3.67;;;3.38;;
14021;SDS011;7086;48.116;11.580;2023-09-07T04:32:01;2.97;;;2.70;;
14021;SDS011;7086;48.116;11.580;2023-09-07T04:34:28;6.05;;;3.10;;
14021;SDS011;7086;48.116;11.580;2023-09-07T04:36:55;3.15;;;2.95;;
14021;SDS011;7086;48.116;11.580;2023-09-07T04:39:21;4.10;;;2.72;;
14021;SDS011;7086;48.116;11.580;2023-09-07T04:41:48;3.03;;;2.88;;
14021;SDS011;7086;48.116;11.580;2023-09-07T04:44:17;3.00;;;2.63;;
14021;SDS011;7086;48.116;11.580;2023-09-07T04:46:44;3.63;;;3.03;;
14021;SDS011;7086;48.116;11.580;2023-09-07T04:49:12;3.35;;;3.15;;
14021;SDS011;7086;48.116;11.580;2023-09-07T04:51:39;3.95;;;3.65;;
14021;SDS011;7086;48.116;11.580;2023-09-07T04:54:06;7.50;;;3.80;;
14021;SDS011;7086;48.116;11.580;2023-09-07T04:56:33;3.42;;;3.20;;
14021;SDS011;7086;48.116;11.580;2023-09-07T04:58:59;3.75;;;3.10;;
14021;SDS011;7086;48.116;11.580;2023-09-07T05:01:26;6.35;;;3.38;;
14021;SDS011;7086;48.116;11.580;2023-09-07T05:03:53;4.30;;;3.90;;
14021;SDS011;7086;48.116;11.580;2023-09-07T05:06:23;3.85;;;3.40;;
14021;SDS011;7086;48.116;11.580;2023-09-07T05:08:51;3.58;;;3.28;;
14021;SDS011;7086;48.116;11.580;2023-09-07T05:11:18;3.67;;;3.33;;
14021;SDS011;7086;48.116;11.580;2023-09-07T05:13:45;8.48;;;4.57;;
14021;SDS011;7086;48.116;11.580;2023-09-07T05:16:11;4.50;;;4.10;;
14021;SDS011;7086;48.116;11.580;2023-09-07T05:18:40;5.57;;;4.15;;
14021;SDS011;7086;48.116;11.580;2023-09-07T05:21:11;4.25;;;3.95;;
14021;SDS011;7086;48.116;11.580;2023-09-07T05:23:40;4.78;;;4.38;;
14021;SDS011;7086;48.116;11.580;2023-09-07T05:26:07;3.97;;;3.55;;
14021;SDS011;7086;48.116;11.580;2023-09-07T05:28:37;5.15;;;4.18;;
14021;SDS011;7086;48.116;11.580;2023-09-07T05:31:08;7.63;;;4.60;;
14021;SDS011;7086;48.116;11.580;2023-09-07T05:33:35;4.20;;;3.83;;
14021;SDS011;7086;48.116;11.580;2023-09-07T05:36:02;16.40;;;4.22;;
14021;SDS011;7086;48.116;11.580;2023-09-07T05:38:29;4.43;;;3.97;;
14021;SDS011;7086;48.116;11.580;2023-09-07T05:40:58;6.07;;;4.55;;
14021;SDS011;7086;48.116;11.580;2023-09-07T05:43:24;5.80;;;4.35;;
14021;SDS011;7086;48.116;11.580;2023-09-07T05:45:51;5.63;;;5.22;;
14021;SDS011;7086;48.116;11.580;2023-09-07T05:48:18;4.28;;;3.97;;
14021;SDS011;7086;48.116;11.580;2023-09-07T05:50:45;4.63;;;4.22;;
14021;SDS011;7086;48.116;11.580;2023-09-07T05:53:12;4.50;;;4.15;;
14021;SDS011;7086;48.116;11.580;2023-09-07T05:55:39;6.47;;;4.65;;
14021;SDS011;7086;48.116;11.580;2023-09-07T05:58:07;6.07;;;4.65;;
14021;SDS011;7086;48.116;11.580;2023-09-07T06:00:34;6.57;;;4.85;;
14021;SDS011;7086;48.116;11.580;2023-09-07T06:03:04;5.40;;;4.70;;
14021;SDS011;7086;48.116;11.580;2023-09-07T06:05:31;5.88;;;4.82;;
14021;SDS011;7086;48.116;11.580;2023-09-07T06:07:59;8.27;;;5.35;;
14021;SDS011;7086;48.116;11.580;2023-09-07T06:10:27;7.03;;;4.70;;
14021;SDS011;7086;48.116;11.580;2023-09-07T06:12:54;5.43;;;4.90;;
14021;SDS011;7086;48.116;11.580;2023-09-07T06:15:22;6.97;;;5.38;;
14021;SDS011;7086;48.116;11.580;2023-09-07T06:17:49;6.20;;;5.60;;
14021;SDS011;7086;48.116;11.580;2023-09-07T06:20:16;6.18;;;5.35;;
14021;SDS011;7086;48.116;11.580;2023-09-07T06:22:44;6.43;;;5.22;;
14021;SDS011;7086;48.116;11.580;2023-09-07T06:25:11;5.50;;;5.00;;
14021;SDS011;7086;48.116;11.580;2023-09-07T06:27:38;6.70;;;5.85;;
14021;SDS011;7086;48.116;11.580;2023-09-07T06:30:05;6.80;;;5.35;;
14021;SDS011;7086;48.116;11.580;2023-09-07T06:32:34;6.43;;;5.65;;
14021;SDS011;7086;48.116;11.580;2023-09-07T06:35:01;6.80;;;6.10;;
14021;SDS011;7086;48.116;11.580;2023-09-07T06:37:28;5.75;;;5.35;;
14021;SDS011;7086;48.116;11.580;2023-09-07T06:39:55;6.65;;;5.15;;
14021;SDS011;7086;48.116;11.580;2023-09-07T06:42:21;7.72;;;5.13;;
14021;SDS011;7086;48.116;11.580;2023-09-07T06:44:48;5.22;;;4.80;;
14021;SDS011;7086;48.116;11.580;2023-09-07T06:47:16;4.70;;;4.30;;
14021;SDS011;7086;48.116;11.580;2023-09-07T06:49:45;5.50;;;4.15;;
14021;SDS011;7086;48.116;11.580;2023-09-07T06:52:11;4.65;;;4.18;;
14021;SDS011;7086;48.116;11.580;2023-09-07T06:54:40;7.55;;;4.53;;
14021;SDS011;7086;48.116;11.580;2023-09-07T06:57:07;5.13;;;4.72;;
14021;SDS011;7086;48.116;11.580;2023-09-07T06:59:34;4.60;;;4.30;;
14021;SDS011;7086;48.116;11.580;2023-09-07T07:02:00;4.85;;;3.92;;
14021;SDS011;7086;48.116;11.580;2023-09-07T07:04:30;4.47;;;4.10;;
14021;SDS011;7086;48.116;11.580;2023-09-07T07:06:58;4.50;;;4.15;;
14021;SDS011;7086;48.116;11.580;2023-09-07T07:09:26;4.90;;;4.47;;
14021;SDS011;7086;48.116;11.580;2023-09-07T07:11:53;5.25;;;4.75;;
14021;SDS011;7086;48.116;11.580;2023-09-07T07:14:20;4.80;;;4.40;;
14021;SDS011;7086;48.116;11.580;2023-09-07T07:16:46;6.35;;;3.88;;
14021;SDS011;7086;48.116;11.580;2023-09-07T07:19:13;4.78;;;4.28;;
14021;SDS011;7086;48.116;11.580;2023-09-07T07:21:40;5.65;;;4.50;;
14021;SDS011;7086;48.116;11.580;2023-09-07T07:24:08;5.25;;;4.18;;
14021;SDS011;7086;48.116;11.580;2023-09-07T07:26:35;4.88;;;4.47;;
14021;SDS011;7086;48.116;11.580;2023-09-07T07:29:02;5.38;;;4.97;;
14021;SDS011;7086;48.116;11.580;2023-09-07T07:31:29;4.70;;;4.32;;
14021;SDS011;7086;48.116;11.580;2023-09-07T07:33:56;4.72;;;4.40;;
14021;SDS011;7086;48.116;11.580;2023-09-07T07:36:22;4.80;;;4.47;;
14021;SDS011;7086;48.116;11.580;2023-09-07T07:38:49;3.95;;;3.65;;
14021;SDS011;7086;48.116;11.580;2023-09-07T07:41:17;5.22;;;4.05;;
14021;SDS011;7086;48.116;11.580;2023-09-07T07:43:44;4.25;;;3.95;;
14021;SDS011;7086;48.116;11.580;2023-09-07T07:46:10;4.10;;;3.83;;
14021;SDS011;7086;48.116;11.580;2023-09-07T07:48:40;4.22;;;3.83;;
14021;SDS011;7086;48.116;11.580;2023-09-07T07:51:07;3.70;;;3.50;;
14021;SDS011;7086;48.116;11.580;2023-09-07T07:53:34;4.38;;;3.53;;
14021;SDS011;7086;48.116;11.580;2023-09-07T07:56:01;4.22;;;3.83;;
14021;SDS011;7086;48.116;11.580;2023-09-07T07:58:29;5.43;;;4.05;;
14021;SDS011;7086;48.116;11.580;2023-09-07T08:00:56;3.95;;;3.67;;
14021;SDS011;7086;48.116;11.580;2023-09-07T08:03:23;4.20;;;3.83;;
14021;SDS011;7086;48.116;11.580;2023-09-07T08:05:50;3.97;;;3.70;;
14021;SDS011;7086;48.116;11.580;2023-09-07T08:08:17;3.95;;;3.75;;
14021;SDS011;7086;48.116;11.580;2023-09-07T08:10:44;4.22;;;3.92;;
14021;SDS011;7086;48.116;11.580;2023-09-07T08:13:11;3.92;;;3.55;;
14021;SDS011;7086;48.116;11.580;2023-09-07T08:15:40;3.53;;;3.33;;
14021;SDS011;7086;48.116;11.580;2023-09-07T08:18:07;3.55;;;3.25;;
14021;SDS011;7086;48.116;11.580;2023-09-07T08:20:35;3.60;;;3.40;;
14021;SDS011;7086;48.116;11.580;2023-09-07T08:23:03;3.90;;;3.05;;
14021;SDS011;7086;48.116;11.580;2023-09-07T08:25:32;4.95;;;3.15;;
14021;SDS011;7086;48.116;11.580;2023-09-07T08:27:59;3.88;;;3.67;;
14021;SDS011;7086;48.116;11.580;2023-09-07T08:30:28;3.58;;;3.30;;
14021;SDS011;7086;48.116;11.580;2023-09-07T08:32:56;4.47;;;3.97;;
14021;SDS011;7086;48.116;11.580;2023-09-07T08:35:23;3.75;;;3.45;;
14021;SDS011;7086;48.116;11.580;2023-09-07T08:37:52;3.53;;;3.30;;
14021;SDS011;7086;48.116;11.580;2023-09-07T08:40:18;3.28;;;3.17;;
14021;SDS011;7086;48.116;11.580;2023-09-07T08:42:46;3.05;;;2.95;;
14021;SDS011;7086;48.116;11.580;2023-09-07T08:45:14;2.70;;;2.60;;
14021;SDS011;7086;48.116;11.580;2023-09-07T08:47:47;3.17;;;2.97;;
14021;SDS011;7086;48.116;11.580;2023-09-07T08:50:16;3.08;;;2.97;;
14021;SDS011;7086;48.116;11.580;2023-09-07T08:52:44;3.55;;;3.35;;
14021;SDS011;7086;48.116;11.580;2023-09-07T08:55:12;3.40;;;3.20;;
14021;SDS011;7086;48.116;11.580;2023-09-07T08:57:39;3.13;;;3.03;;
14021;SDS011;7086;48.116;11.580;2023-09-07T09:00:06;3.00;;;2.80;;
14021;SDS011;7086;48.116;11.580;2023-09-07T09:02:39;3.00;;;2.80;;
14021;SDS011;7086;48.116;11.580;2023-09-07T09:05:06;3.10;;;2.90;;
14021;SDS011;7086;48.116;11.580;2023-09-07T09:07:36;3.78;;;3.53;;
14021;SDS011;7086;48.116;11.580;2023-09-07T09:10:04;3.08;;;2.60;;
14021;SDS011;7086;48.116;11.580;2023-09-07T09:12:31;2.92;;;2.83;;
14021;SDS011;7086;48.116;11.580;2023-09-07T09:14:58;2.38;;;2.28;;
14021;SDS011;7086;48.116;11.580;2023-09-07T09:17:26;2.85;;;2.75;;
14021;SDS011;7086;48.116;11.580;2023-09-07T09:19:52;3.38;;;3.15;;
14021;SDS011;7086;48.116;11.580;2023-09-07T09:22:19;3.00;;;2.85;;
14021;SDS011;7086;48.116;11.580;2023-09-07T09:24:48;3.55;;;3.30;;
14021;SDS011;7086;48.116;11.580;2023-09-07T09:27:15;3.10;;;2.90;;
14021;SDS011;7086;48.116;11.580;2023-09-07T09:29:42;3.40;;;2.90;;
14021;SDS011;7086;48.116;11.580;2023-09-07T09:32:09;3.05;;;2.85;;
14021;SDS011;7086;48.116;11.580;2023-09-07T09:34:36;3.20;;;3.00;;
14021;SDS011;7086;48.116;11.580;2023-09-07T09:37:04;3.17;;;2.70;;
14021;SDS011;7086;48.116;11.580;2023-09-07T09:39:31;4.10;;;3.58;;
14021;SDS011;7086;48.116;11.580;2023-09-07T09:42:00;3.75;;;3.55;;
14021;SDS011;7086;48.116;11.580;2023-09-07T09:44:28;3.35;;;3.15;;
14021;SDS011;7086;48.116;11.580;2023-09-07T09:46:55;3.33;;;3.15;;
14021;SDS011;7086;48.116;11.580;2023-09-07T09:49:23;3.28;;;3.17;;
14021;SDS011;7086;48.116;11.580;2023-09-07T09:51:51;3.40;;;3.20;;
14021;SDS011;7086;48.116;11.580;2023-09-07T09:54:18;3.22;;;3.08;;
14021;SDS011;7086;48.116;11.580;2023-09-07T09:56:45;3.17;;;2.97;;
14021;SDS011;7086;48.116;11.580;2023-09-07T09:59:13;4.35;;;3.35;;
14021;SDS011;7086;48.116;11.580;2023-09-07T10:01:41;3.47;;;3.28;;
14021;SDS011;7086;48.116;11.580;2023-09-07T10:04:11;4.03;;;3.63;;
14021;SDS011;7086;48.116;11.580;2023-09-07T10:06:49;3.17;;;3.00;;
14021;SDS011;7086;48.116;11.580;2023-09-07T10:09:17;3.15;;;2.95;;
14021;SDS011;7086;48.116;11.580;2023-09-07T10:11:50;5.13;;;3.10;;
14021;SDS011;7086;48.116;11.580;2023-09-07T10:14:19;3.42;;;3.22;;
14021;SDS011;7086;48.116;11.580;2023-09-07T10:16:47;4.57;;;3.00;;
14021;SDS011;7086;48.116;11.580;2023-09-07T10:19:17;3.28;;;3.17;;
14021;SDS011;7086;48.116;11.580;2023-09-07T10:21:44;3.55;;;3.38;;
14021;SDS011;7086;48.116;11.580;2023-09-07T10:24:11;5.28;;;3.40;;
14021;SDS011;7086;48.116;11.580;2023-09-07T10:26:38;3.50;;;3.30;;
14021;SDS011;7086;48.116;11.580;2023-09-07T10:29:05;2.97;;;2.78;;
14021;SDS011;7086;48.116;11.580;2023-09-07T10:31:35;3.22;;;3.03;;
14021;SDS011;7086;48.116;11.580;2023-09-07T10:34:09;3.30;;;3.10;;
14021;SDS011;7086;48.116;11.580;2023-09-07T10:36:37;3.00;;;2.80;;
14021;SDS011;7086;48.116;11.580;2023-09-07T10:39:04;3.38;;;3.03;;
14021;SDS011;7086;48.116;11.580;2023-09-07T10:41:40;3.53;;;3.28;;
14021;SDS011;7086;48.116;11.580;2023-09-07T10:44:08;3.30;;;3.10;;
14021;SDS011;7086;48.116;11.580;2023-09-07T10:46:52;2.95;;;2.65;;
14021;SDS011;7086;48.116;11.580;2023-09-07T10:49:21;2.78;;;2.67;;
14021;SDS011;7086;48.116;11.580;2023-09-07T10:51:52;2.92;;;2.78;;
14021;SDS011;7086;48.116;11.580;2023-09-07T10:54:22;4.07;;;2.78;;
14021;SDS011;7086;48.116;11.580;2023-09-07T10:56:50;3.63;;;3.40;;
14021;SDS011;7086;48.116;11.580;2023-09-07T10:59:17;3.28;;;3.08;;
14021;SDS011;7086;48.116;11.580;2023-09-07T11:01:44;3.03;;;2.92;;
14021;SDS011;7086;48.116;11.580;2023-09-07T11:04:12;2.97;;;2.78;;
14021;SDS011;7086;48.116;11.580;2023-09-07T11:06:40;5.18;;;3.80;;
14021;SDS011;7086;48.116;11.580;2023-09-07T11:09:08;3.40;;;3.10;;
14021;SDS011;7086;48.116;11.580;2023-09-07T11:11:35;3.30;;;3.10;;
14021;SDS011;7086;48.116;11.580;2023-09-07T11:14:03;3.03;;;2.83;;
14021;SDS011;7086;48.116;11.580;2023-09-07T11:16:30;3.20;;;3.00;;
14021;SDS011;7086;48.116;11.580;2023-09-07T11:19:02;2.95;;;2.80;;
14021;SDS011;7086;48.116;11.580;2023-09-07T11:21:31;3.20;;;3.00;;
14021;SDS011;7086;48.116;11.580;2023-09-07T11:23:59;3.08;;;2.88;;
14021;SDS011;7086;48.116;11.580;2023-09-07T11:26:29;3.30;;;3.08;;
14021;SDS011;7086;48.116;11.580;2023-09-07T11:29:07;3.38;;;3.17;;
14021;SDS011;7086;48.116;11.580;2023-09-07T11:31:37;2.67;;;2.45;;
14021;SDS011;7086;48.116;11.580;2023-09-07T11:34:08;3.25;;;3.05;;
14021;SDS011;7086;48.116;11.580;2023-09-07T11:36:36;3.30;;;2.97;;
14021;SDS011;7086;48.116;11.580;2023-09-07T11:39:03;3.63;;;3.42;;
14021;SDS011;7086;48.116;11.580;2023-09-07T11:41:37;3.42;;;3.22;;
14021;SDS011;7086;48.116;11.580;2023-09-07T11:44:04;3.83;;;3.53;;
14021;SDS011;7086;48.116;11.580;2023-09-07T11:46:31;3.05;;;2.92;;
14021;SDS011;7086;48.116;11.580;2023-09-07T11:48:57;3.20;;;3.00;;
14021;SDS011;7086;48.116;11.580;2023-09-07T11:51:25;3.95;;;2.63;;
14021;SDS011;7086;48.116;11.580;2023-09-07T11:53:53;2.88;;;2.67;;
14021;SDS011;7086;48.116;11.580;2023-09-07T11:56:20;3.13;;;2.92;;
14021;SDS011;7086;48.116;11.580;2023-09-07T11:58:47;2.92;;;2.47;;
14021;SDS011;7086;48.116;11.580;2023-09-07T12:01:14;3.33;;;3.08;;
14021;SDS011;7086;48.116;11.580;2023-09-07T12:03:41;3.03;;;2.83;;
14021;SDS011;7086;48.116;11.580;2023-09-07T12:06:08;3.47;;;3.17;;
14021;SDS011;7086;48.116;11.580;2023-09-07T12:08:36;3.30;;;3.10;;
14021;SDS011;7086;48.116;11.580;2023-09-07T12:11:04;3.60;;;3.40;;
14021;SDS011;7086;48.116;11.580;2023-09-07T12:13:30;3.05;;;2.85;;
14021;SDS011;7086;48.116;11.580;2023-09-07T12:15:57;3.78;;;3.20;;
14021;SDS011;7086;48.116;11.580;2023-09-07T12:18:24;3.10;;;2.90;;
14021;SDS011;7086;48.116;11.580;2023-09-07T12:20:51;2.95;;;2.80;;
14021;SDS011;7086;48.116;11.580;2023-09-07T12:23:17;2.85;;;2.65;;
14021;SDS011;7086;48.116;11.580;2023-09-07T12:25:44;3.10;;;2.90;;
14021;SDS011;7086;48.116;11.580;2023-09-07T12:28:17;4.72;;;3.58;;
14021;SDS011;7086;48.116;11.580;2023-09-07T12:30:43;3.08;;;2.78;;
14021;SDS011;7086;48.116;11.580;2023-09-07T12:33:10;3.08;;;2.88;;
14021;SDS011;7086;48.116;11.580;2023-09-07T12:35:37;2.85;;;2.72;;
14021;SDS011;7086;48.116;11.580;2023-09-07T12:38:04;3.20;;;2.90;;
14021;SDS011;7086;48.116;11.580;2023-09-07T12:40:32;6.03;;;3.13;;
14021;SDS011;7086;48.116;11.580;2023-09-07T12:42:59;3.42;;;3.15;;
14021;SDS011;7086;48.116;11.580;2023-09-07T12:45:27;3.38;;;3.20;;
14021;SDS011;7086;48.116;11.580;2023-09-07T12:47:54;3.13;;;2.92;;
14021;SDS011;7086;48.116;11.580;2023-09-07T12:50:20;4.97;;;3.05;;
14021;SDS011;7086;48.116;11.580;2023-09-07T12:52:48;3.10;;;2.90;;
14021;SDS011;7086;48.116;11.580;2023-09-07T12:55:15;3.03;;;2.90;;
14021;SDS011;7086;48.116;11.580;2023-09-07T12:57:43;3.83;;;2.95;;
14021;SDS011;7086;48.116;11.580;2023-09-07T13:00:11;3.45;;;3.25;;
14021;SDS011;7086;48.116;11.580;2023-09-07T13:02:40;3.53;;;3.33;;
14021;SDS011;7086;48.116;11.580;2023-09-07T13:05:07;3.05;;;2.85;;
14021;SDS011;7086;48.116;11.580;2023-09-07T13:07:34;3.38;;;3.08;;
14021;SDS011;7086;48.116;11.580;2023-09-07T13:10:01;3.60;;;3.35;;
14021;SDS011;7086;48.116;11.580;2023-09-07T13:12:29;3.90;;;3.10;;
14021;SDS011;7086;48.116;11.580;2023-09-07T13:14:56;3.13;;;2.92;;
14021;SDS011;7086;48.116;11.580;2023-09-07T13:17:23;2.70;;;2.55;;
14021;SDS011;7086;48.116;11.580;2023-09-07T13:19:51;3.28;;;3.08;;
14021;SDS011;7086;48.116;11.580;2023-09-07T13:22:18;3.20;;;3.10;;
14021;SDS011;7086;48.116;11.580;2023-09-07T13:24:45;3.08;;;2.78;;
14021;SDS011;7086;48.116;11.580;2023-09-07T13:27:12;3.20;;;2.88;;
14021;SDS011;7086;48.116;11.580;2023-09-07T13:29:41;2.90;;;2.80;;
14021;SDS011;7086;48.116;11.580;2023-09-07T13:32:09;2.72;;;2.63;;
14021;SDS011;7086;48.116;11.580;2023-09-07T13:34:36;3.58;;;2.78;;
14021;SDS011;7086;48.116;11.580;2023-09-07T13:37:06;3.20;;;3.00;;
14021;SDS011;7086;48.116;11.580;2023-09-07T13:39:34;4.20;;;3.08;;
14021;SDS011;7086;48.116;11.580;2023-09-07T13:42:01;2.72;;;2.63;;
14021;SDS011;7086;48.116;11.580;2023-09-07T13:44:27;3.72;;;2.67;;
14021;SDS011;7086;48.116;11.580;2023-09-07T13:46:54;2.55;;;2.45;;
14021;SDS011;7086;48.116;11.580;2023-09-07T13:49:21;3.30;;;3.00;;
14021;SDS011;7086;48.116;11.580;2023-09-07T13:51:47;3.13;;;2.90;;
14021;SDS011;7086;48.116;11.580;2023-09-07T13:54:16;3.08;;;2.53;;
14021;SDS011;7086;48.116;11.580;2023-09-07T13:56:42;3.47;;;3.28;;
14021;SDS011;7086;48.116;11.580;2023-09-07T13:59:10;3.28;;;3.08;;
14021;SDS011;7086;48.116;11.580;2023-09-07T14:01:37;5.43;;;4.88;;
14021;SDS011;7086;48.116;11.580;2023-09-07T14:04:04;6.53;;;5.50;;
14021;SDS011;7086;48.116;11.580;2023-09-07T14:06:31;4.95;;;4.55;;
14021;SDS011;7086;48.116;11.580;2023-09-07T14:08:58;6.20;;;4.30;;
14021;SDS011;7086;48.116;11.580;2023-09-07T14:11:26;3.13;;;2.78;;
14021;SDS011;7086;48.116;11.580;2023-09-07T14:13:52;4.35;;;4.00;;
14021;SDS011;7086;48.116;11.580;2023-09-07T14:16:19;7.72;;;5.32;;
14021;SDS011;7086;48.116;11.580;2023-09-07T14:18:48;5.15;;;4.75;;
14021;SDS011;7086;48.116;11.580;2023-09-07T14:21:15;3.85;;;3.55;;
14021;SDS011;7086;48.116;11.580;2023-09-07T14:23:43;4.82;;;3.67;;
14021;SDS011;7086;48.116;11.580;2023-09-07T14:26:10;3.28;;;2.97;;
14021;SDS011;7086;48.116;11.580;2023-09-07T14:28:38;3.10;;;2.90;;
14021;SDS011;7086;48.116;11.580;2023-09-07T14:31:05;4.50;;;4.30;;
14021;SDS011;7086;48.116;11.580;2023-09-07T14:33:32;7.55;;;4.50;;
14021;SDS011;7086;48.116;11.580;2023-09-07T14:36:03;3.28;;;3.00;;
14021;SDS011;7086;48.116;11.580;2023-09-07T14:38:31;2.97;;;2.80;;
14021;SDS011;7086;48.116;11.580;2023-09-07T14:40:59;3.13;;;2.83;;
14021;SDS011;7086;48.116;11.580;2023-09-07T14:43:26;4.95;;;3.13;;
14021;SDS011;7086;48.116;11.580;2023-09-07T14:45:54;2.40;;;2.30;;
14021;SDS011;7086;48.116;11.580;2023-09-07T14:48:21;2.90;;;2.80;;
14021;SDS011;7086;48.116;11.580;2023-09-07T14:50:48;4.03;;;3.72;;